createdAt,value
2022-10-31T00:01:40.589Z,7.75
2022-10-31T00:04:46.613Z,7.73
2022-10-31T00:07:55.906Z,7.71
2022-10-31T00:11:01.967Z,7.68
2022-10-31T00:14:08.609Z,7.66
2022-10-31T00:17:14.722Z,7.66
2022-10-31T00:20:21.019Z,7.63
2022-10-31T00:23:25.525Z,7.57
2022-10-31T00:26:33.162Z,7.53
2022-10-31T00:29:39.540Z,7.50
2022-10-31T00:32:44.040Z,7.50
2022-10-31T00:35:54.938Z,7.49
2022-10-31T00:39:02.594Z,7.46
2022-10-31T00:42:08.821Z,7.40
2022-10-31T00:45:13.747Z,7.33
2022-10-31T00:48:19.920Z,7.30
2022-10-31T00:51:26.064Z,7.25
2022-10-31T00:54:32.645Z,7.20
2022-10-31T00:57:38.714Z,7.17
2022-10-31T01:00:46.841Z,7.16
2022-10-31T01:03:55.778Z,7.15
2022-10-31T01:07:02.457Z,7.13
2022-10-31T01:10:10.053Z,7.09
2022-10-31T01:13:16.110Z,7.07
2022-10-31T01:16:24.336Z,7.04
2022-10-31T01:19:30.606Z,6.99
2022-10-31T01:22:35.549Z,6.92
2022-10-31T01:25:43.636Z,6.87
2022-10-31T01:28:51.864Z,6.82
2022-10-31T01:31:58.100Z,6.78
2022-10-31T01:35:04.496Z,6.74
2022-10-31T01:38:10.509Z,6.71
2022-10-31T01:41:18.379Z,6.70
2022-10-31T01:44:59.152Z,6.72
2022-10-31T01:48:05.463Z,6.76
2022-10-31T01:51:15.492Z,6.74
2022-10-31T01:54:26.257Z,6.71
2022-10-31T01:57:34.340Z,6.70
2022-10-31T02:00:41.166Z,6.65
2022-10-31T02:03:48.716Z,6.62
2022-10-31T02:06:58.975Z,6.59
2022-10-31T02:10:07.163Z,6.55
2022-10-31T02:13:14.432Z,6.51
2022-10-31T02:16:20.643Z,6.48
2022-10-31T02:19:37.024Z,6.46
2022-10-31T02:22:53.550Z,6.44
2022-10-31T02:26:32.177Z,6.40
2022-10-31T02:29:56.874Z,6.36
2022-10-31T02:33:17.095Z,6.33
2022-10-31T02:36:30.808Z,6.29
2022-10-31T02:39:47.034Z,6.24
2022-10-31T02:43:00.766Z,6.23
2022-10-31T02:46:16.545Z,6.22
2022-10-31T02:49:30.097Z,6.22
2022-10-31T02:52:38.082Z,6.22
2022-10-31T02:55:58.787Z,6.23
2022-10-31T02:59:07.113Z,6.22
2022-10-31T03:02:34.036Z,6.21
2022-10-31T03:05:56.929Z,6.18
2022-10-31T03:09:12.189Z,6.15
2022-10-31T03:12:28.096Z,6.17
2022-10-31T03:15:37.102Z,6.20
2022-10-31T03:18:46.550Z,6.20
2022-10-31T03:21:57.847Z,6.19
2022-10-31T03:25:06.805Z,6.17
2022-10-31T03:28:17.061Z,6.13
2022-10-31T03:31:27.588Z,6.07
2022-10-31T03:34:34.279Z,6.03
2022-10-31T03:37:44.129Z,6.04
2022-10-31T03:40:53.462Z,6.07
2022-10-31T03:44:04.047Z,6.09
2022-10-31T03:47:10.502Z,6.12
2022-10-31T03:50:18.266Z,6.11
2022-10-31T03:53:33.081Z,6.10
2022-10-31T03:56:44.046Z,6.12
2022-10-31T03:59:54.191Z,6.14
2022-10-31T04:03:06.807Z,6.15
2022-10-31T04:06:16.874Z,6.15
2022-10-31T04:09:24.267Z,6.16
2022-10-31T04:12:31.886Z,6.16
2022-10-31T04:15:39.551Z,6.16
2022-10-31T04:18:46.286Z,6.15
2022-10-31T04:21:52.359Z,6.15
2022-10-31T04:24:58.440Z,6.13
2022-10-31T04:28:04.966Z,6.10
2022-10-31T04:31:13.141Z,6.06
2022-10-31T04:34:19.359Z,6.02
2022-10-31T04:37:25.435Z,5.98
2022-10-31T04:40:31.528Z,5.95
2022-10-31T04:43:37.730Z,5.93
2022-10-31T04:46:44.013Z,5.90
2022-10-31T04:49:48.486Z,5.87
2022-10-31T04:52:54.653Z,5.84
2022-10-31T04:56:01.819Z,5.83
2022-10-31T04:59:08.200Z,5.81
2022-10-31T05:02:12.869Z,5.80
2022-10-31T05:05:22.279Z,5.79
2022-10-31T05:08:28.337Z,5.78
2022-10-31T05:11:34.465Z,5.74
2022-10-31T05:14:42.377Z,5.72
2022-10-31T05:17:52.384Z,5.68
2022-10-31T05:20:58.540Z,5.66
2022-10-31T05:24:05.295Z,5.64
2022-10-31T05:27:11.407Z,5.63
2022-10-31T05:30:19.896Z,5.60
2022-10-31T05:33:25.984Z,5.58
2022-10-31T05:36:32.185Z,5.56
2022-10-31T05:39:38.206Z,5.55
2022-10-31T05:42:45.439Z,5.53
2022-10-31T05:45:56.337Z,5.52
2022-10-31T05:49:03.000Z,5.49
2022-10-31T05:52:09.499Z,5.49
2022-10-31T05:55:14.018Z,5.49
2022-10-31T05:58:20.120Z,5.49
2022-10-31T06:01:26.248Z,5.50
2022-10-31T06:04:32.395Z,5.51
2022-10-31T06:07:38.842Z,5.52
2022-10-31T06:10:44.994Z,5.53
2022-10-31T06:13:51.083Z,5.55
2022-10-31T06:16:58.168Z,5.56
2022-10-31T06:20:05.094Z,5.57
2022-10-31T06:23:11.259Z,5.58
2022-10-31T06:26:17.547Z,5.60
2022-10-31T06:29:22.261Z,5.64
2022-10-31T06:32:28.338Z,5.66
2022-10-31T06:35:34.517Z,5.67
2022-10-31T06:38:40.586Z,5.68
2022-10-31T06:41:49.058Z,5.72
2022-10-31T06:44:55.171Z,5.76
2022-10-31T06:48:16.628Z,5.80
2022-10-31T06:51:23.932Z,5.84
2022-10-31T06:54:30.321Z,5.89
2022-10-31T06:57:36.489Z,5.94
2022-10-31T07:00:42.755Z,5.99
2022-10-31T07:03:47.342Z,6.05
2022-10-31T07:06:54.557Z,6.10
2022-10-31T07:10:00.690Z,6.17
2022-10-31T07:13:07.899Z,6.23
2022-10-31T07:16:14.993Z,6.31
2022-10-31T07:19:21.293Z,6.40
2022-10-31T07:22:25.835Z,6.47
2022-10-31T07:25:32.211Z,6.53
2022-10-31T07:28:36.746Z,6.61
2022-10-31T07:31:42.917Z,6.68
2022-10-31T07:34:49.121Z,6.76
2022-10-31T07:37:55.762Z,6.84
2022-10-31T07:41:01.936Z,6.94
2022-10-31T07:44:06.846Z,7.03
2022-10-31T07:47:13.134Z,7.13
2022-10-31T07:50:18.646Z,7.23
2022-10-31T07:53:24.792Z,7.34
2022-10-31T07:56:30.846Z,7.43
2022-10-31T07:59:36.862Z,7.53
2022-10-31T08:02:43.207Z,7.65
2022-10-31T08:05:48.308Z,7.75
2022-10-31T08:08:54.517Z,7.86
2022-10-31T08:12:00.636Z,7.97
2022-10-31T08:15:07.959Z,8.09
2022-10-31T08:18:16.566Z,8.19
2022-10-31T08:21:22.606Z,8.30
2022-10-31T08:24:28.747Z,8.41
2022-10-31T08:27:34.817Z,8.51
2022-10-31T08:30:42.037Z,8.64
2022-10-31T08:33:48.083Z,8.76
2022-10-31T08:36:54.135Z,8.91
2022-10-31T08:40:00.219Z,9.05
2022-10-31T08:43:08.140Z,9.18
2022-10-31T08:46:14.538Z,9.30
2022-10-31T08:49:20.621Z,9.41
2022-10-31T08:52:51.225Z,9.53
2022-10-31T08:55:57.066Z,9.67
2022-10-31T08:59:03.495Z,9.81
2022-10-31T09:02:11.570Z,9.95
2022-10-31T09:05:17.972Z,10.09
2022-10-31T09:08:24.203Z,10.24
2022-10-31T09:11:28.725Z,10.41
2022-10-31T09:14:34.845Z,10.58
2022-10-31T09:17:41.027Z,10.73
2022-10-31T09:20:46.493Z,10.90
2022-10-31T09:23:54.998Z,11.05
2022-10-31T09:27:02.209Z,11.20
2022-10-31T09:30:09.784Z,11.36
2022-10-31T09:33:16.897Z,11.51
2022-10-31T09:36:22.986Z,11.65
2022-10-31T09:39:29.594Z,11.83
2022-10-31T09:42:50.831Z,12.02
2022-10-31T09:46:10.010Z,12.20
2022-10-31T09:49:36.397Z,12.45
2022-10-31T09:52:48.321Z,12.68
2022-10-31T09:55:55.889Z,12.84
2022-10-31T09:59:04.348Z,13.02
2022-10-31T10:02:20.199Z,13.26
2022-10-31T10:05:30.500Z,13.53
2022-10-31T10:08:38.091Z,13.75
2022-10-31T10:12:04.034Z,14.00
2022-10-31T10:15:32.514Z,14.31
2022-10-31T10:18:47.070Z,14.49
2022-10-31T10:22:02.548Z,14.68
2022-10-31T10:25:22.457Z,14.83
2022-10-31T10:28:39.270Z,14.94
2022-10-31T10:31:48.230Z,15.07
2022-10-31T10:34:57.313Z,15.24
2022-10-31T10:38:13.009Z,15.41
2022-10-31T10:41:21.542Z,15.53
2022-10-31T10:44:45.496Z,15.65
2022-10-31T10:47:59.206Z,15.80
2022-10-31T10:51:20.278Z,15.95
2022-10-31T10:54:59.775Z,16.10
2022-10-31T10:58:09.078Z,16.28
2022-10-31T11:01:17.294Z,16.44
2022-10-31T11:04:34.017Z,16.59
2022-10-31T11:07:43.715Z,16.77
2022-10-31T11:10:58.075Z,16.91
2022-10-31T11:14:07.602Z,17.08
2022-10-31T11:17:20.124Z,17.24
2022-10-31T11:20:35.748Z,17.39
2022-10-31T11:23:40.353Z,17.54
2022-10-31T11:26:48.642Z,17.69
2022-10-31T11:29:59.777Z,17.82
2022-10-31T11:33:08.033Z,17.95
2022-10-31T11:36:23.722Z,18.07
2022-10-31T11:39:28.558Z,18.17
2022-10-31T11:42:41.387Z,18.28
2022-10-31T11:45:47.640Z,18.42
2022-10-31T11:48:56.312Z,18.57
2022-10-31T11:52:06.828Z,18.67
2022-10-31T11:55:33.601Z,18.78
2022-10-31T11:58:39.810Z,18.90
2022-10-31T12:01:51.657Z,18.98
2022-10-31T12:05:09.217Z,19.07
2022-10-31T12:08:16.254Z,19.16
2022-10-31T12:11:40.258Z,19.26
2022-10-31T12:14:55.827Z,19.37
2022-10-31T12:18:28.610Z,19.45
2022-10-31T12:21:50.871Z,19.53
2022-10-31T12:25:19.239Z,19.60
2022-10-31T12:28:51.027Z,19.65
2022-10-31T12:32:17.875Z,19.70
2022-10-31T12:35:46.956Z,19.75
2022-10-31T12:39:14.309Z,19.80
2022-10-31T12:42:32.763Z,19.87
2022-10-31T12:45:54.386Z,19.91
2022-10-31T12:49:22.669Z,19.96
2022-10-31T12:52:43.082Z,20.00
2022-10-31T12:56:01.969Z,20.03
2022-10-31T12:59:15.167Z,20.04
2022-10-31T13:02:26.464Z,20.07
2022-10-31T13:05:36.429Z,20.11
2022-10-31T13:08:48.215Z,20.12
2022-10-31T13:11:59.162Z,20.14
2022-10-31T13:15:14.959Z,20.14
2022-10-31T13:18:41.003Z,20.13
2022-10-31T13:21:56.486Z,20.09
2022-10-31T13:25:12.225Z,20.05
2022-10-31T13:28:31.445Z,20.00
2022-10-31T13:31:41.893Z,19.95
2022-10-31T13:34:55.047Z,19.90
2022-10-31T13:38:11.669Z,19.86
2022-10-31T13:41:32.459Z,19.81
2022-10-31T13:44:39.681Z,19.74
2022-10-31T13:47:57.014Z,19.68
2022-10-31T13:51:04.895Z,19.62
2022-10-31T13:54:25.787Z,19.57
2022-10-31T13:57:37.340Z,19.50
2022-10-31T14:00:43.887Z,19.45
2022-10-31T14:04:11.094Z,19.40
2022-10-31T14:07:23.850Z,19.35
2022-10-31T14:10:33.387Z,19.30
2022-10-31T14:13:44.117Z,19.26
2022-10-31T14:16:55.902Z,19.22
2022-10-31T14:20:05.585Z,19.18
2022-10-31T14:23:37.424Z,19.14
2022-10-31T14:26:53.641Z,19.08
2022-10-31T14:30:15.997Z,19.00
2022-10-31T14:33:24.588Z,18.90
2022-10-31T14:36:41.685Z,18.79
2022-10-31T14:40:00.539Z,18.68
2022-10-31T14:43:45.647Z,18.54
2022-10-31T14:46:59.315Z,18.41
2022-10-31T14:50:22.664Z,18.26
2022-10-31T14:53:31.689Z,18.10
2022-10-31T14:56:43.582Z,17.95
2022-10-31T14:59:55.880Z,17.82
2022-10-31T15:03:13.526Z,17.67
2022-10-31T15:06:22.146Z,17.52
2022-10-31T15:09:31.056Z,17.38
2022-10-31T15:12:39.510Z,17.24
2022-10-31T15:15:49.734Z,17.11
2022-10-31T15:19:00.723Z,17.00
2022-10-31T15:22:07.002Z,16.86
2022-10-31T15:25:21.989Z,16.71
2022-10-31T15:28:29.255Z,16.57
2022-10-31T15:31:35.907Z,16.41
2022-10-31T15:34:43.967Z,16.26
2022-10-31T15:37:50.166Z,16.13
2022-10-31T15:41:00.286Z,16.00
2022-10-31T15:44:14.924Z,15.86
2022-10-31T15:47:22.974Z,15.70
2022-10-31T15:50:34.768Z,15.52
2022-10-31T15:53:49.206Z,15.39
2022-10-31T15:56:55.553Z,15.27
2022-10-31T16:00:02.335Z,15.13
2022-10-31T16:03:20.585Z,15.00
2022-10-31T16:06:26.849Z,14.91
2022-10-31T16:09:33.316Z,14.80
2022-10-31T16:12:46.674Z,14.68
2022-10-31T16:16:21.237Z,14.54
2022-10-31T16:19:25.455Z,14.40
2022-10-31T16:22:33.998Z,14.27
2022-10-31T16:25:41.513Z,14.15
2022-10-31T16:29:03.339Z,14.03
2022-10-31T16:32:28.340Z,13.91
2022-10-31T16:35:38.419Z,13.78
2022-10-31T16:38:44.538Z,13.67
2022-10-31T16:41:51.477Z,13.57
2022-10-31T16:44:57.627Z,13.48
2022-10-31T16:48:08.343Z,13.37
2022-10-31T16:51:14.490Z,13.23
2022-10-31T16:54:21.229Z,13.10
2022-10-31T16:57:32.014Z,13.02
2022-10-31T17:00:38.395Z,12.95
2022-10-31T17:03:44.446Z,12.88
2022-10-31T17:06:48.963Z,12.81
2022-10-31T17:09:55.112Z,12.68
2022-10-31T17:13:00.208Z,12.56
2022-10-31T17:16:07.453Z,12.49
2022-10-31T17:19:15.402Z,12.41
2022-10-31T17:22:21.491Z,12.39
2022-10-31T17:25:26.989Z,12.35
2022-10-31T17:28:33.033Z,12.24
2022-10-31T17:31:39.909Z,12.12
2022-10-31T17:34:46.089Z,12.06
2022-10-31T17:37:50.929Z,12.01
2022-10-31T17:40:57.135Z,11.94
2022-10-31T17:44:03.600Z,11.86
2022-10-31T17:47:09.801Z,11.78
2022-10-31T17:50:16.166Z,11.73
2022-10-31T17:53:22.744Z,11.65
2022-10-31T17:56:29.419Z,11.56
2022-10-31T17:59:35.497Z,11.46
2022-10-31T18:02:40.104Z,11.39
2022-10-31T18:05:54.618Z,11.34
2022-10-31T18:09:03.523Z,11.28
2022-10-31T18:12:09.922Z,11.30
2022-10-31T18:15:16.301Z,11.27
2022-10-31T18:18:23.141Z,11.15
2022-10-31T18:21:29.483Z,11.06
2022-10-31T18:24:35.618Z,10.99
2022-10-31T18:27:40.085Z,10.92
2022-10-31T18:30:46.296Z,10.85
2022-10-31T18:33:53.554Z,10.82
2022-10-31T18:36:59.733Z,10.81
2022-10-31T18:40:04.687Z,10.79
2022-10-31T18:43:11.044Z,10.72
2022-10-31T18:46:18.695Z,10.61
2022-10-31T18:49:26.029Z,10.52
2022-10-31T18:52:32.890Z,10.45
2022-10-31T18:55:45.481Z,10.37
2022-10-31T18:58:56.255Z,10.30
2022-10-31T19:02:02.994Z,10.21
2022-10-31T19:05:10.220Z,10.13
2022-10-31T19:08:16.499Z,10.08
2022-10-31T19:11:23.140Z,10.07
2022-10-31T19:14:29.225Z,10.03
2022-10-31T19:17:35.403Z,9.95
2022-10-31T19:20:40.444Z,9.92
2022-10-31T19:23:47.451Z,9.83
2022-10-31T19:26:53.655Z,9.74
2022-10-31T19:29:58.360Z,9.68
2022-10-31T19:33:04.585Z,9.63
2022-10-31T19:36:10.454Z,9.57
2022-10-31T19:39:15.198Z,9.52
2022-10-31T19:42:21.778Z,9.50
2022-10-31T19:45:27.892Z,9.48
2022-10-31T19:48:36.791Z,9.47
2022-10-31T19:51:42.945Z,9.42
2022-10-31T19:54:47.406Z,9.37
2022-10-31T19:58:01.820Z,9.32
2022-10-31T20:01:12.382Z,9.34
2022-10-31T20:04:18.812Z,9.33
2022-10-31T20:07:25.134Z,9.32
2022-10-31T20:10:31.337Z,9.29
2022-10-31T20:13:35.764Z,9.26
2022-10-31T20:16:42.450Z,9.22
2022-10-31T20:19:48.743Z,9.10
2022-10-31T20:22:55.034Z,8.99
2022-10-31T20:25:59.593Z,8.88
2022-10-31T20:29:06.526Z,8.79
2022-10-31T20:32:12.625Z,8.72
2022-10-31T20:35:19.180Z,8.66
2022-10-31T20:38:25.442Z,8.61
2022-10-31T20:41:29.919Z,8.54
2022-10-31T20:44:36.235Z,8.48
2022-10-31T20:47:42.646Z,8.45
2022-10-31T20:50:48.873Z,8.42
2022-10-31T20:53:53.965Z,8.39
2022-10-31T20:57:00.177Z,8.36
2022-10-31T21:00:05.483Z,8.35
2022-10-31T21:03:11.565Z,8.33
2022-10-31T21:06:19.032Z,8.25
2022-10-31T21:09:25.126Z,8.18
2022-10-31T21:12:31.196Z,8.14
2022-10-31T21:15:37.438Z,8.12
2022-10-31T21:18:42.960Z,8.12
2022-10-31T21:21:49.136Z,8.09
2022-10-31T21:24:55.206Z,8.04
2022-10-31T21:28:01.863Z,8.01
2022-10-31T21:31:11.919Z,8.02
2022-10-31T21:34:18.282Z,8.03
2022-10-31T21:37:24.377Z,8.03
2022-10-31T21:40:30.806Z,8.03
2022-10-31T21:43:39.120Z,8.02
2022-10-31T21:46:47.535Z,7.96
2022-10-31T21:49:53.634Z,7.89
2022-10-31T21:53:20.854Z,7.84
2022-10-31T21:56:27.020Z,7.81
2022-10-31T21:59:31.752Z,7.79
2022-10-31T22:02:38.286Z,7.78
2022-10-31T22:05:44.327Z,7.77
2022-10-31T22:08:51.026Z,7.75
2022-10-31T22:11:57.425Z,7.68
2022-10-31T22:15:03.676Z,7.62
2022-10-31T22:18:08.250Z,7.55
2022-10-31T22:21:16.958Z,7.45
2022-10-31T22:24:23.294Z,7.38
2022-10-31T22:27:29.548Z,7.32
2022-10-31T22:30:38.444Z,7.29
2022-10-31T22:33:44.690Z,7.26
2022-10-31T22:36:49.300Z,7.24
2022-10-31T22:39:55.875Z,7.20
2022-10-31T22:43:02.370Z,7.18
2022-10-31T22:46:11.714Z,7.15
2022-10-31T22:49:17.937Z,7.12
2022-10-31T22:52:24.113Z,7.11
2022-10-31T22:55:30.380Z,7.13
2022-10-31T22:58:35.549Z,7.18
2022-10-31T23:01:41.913Z,7.18
2022-10-31T23:04:48.151Z,7.14
2022-10-31T23:07:54.701Z,7.06
2022-10-31T23:11:00.742Z,6.97
2022-10-31T23:14:12.127Z,6.92
2022-10-31T23:17:18.840Z,6.90
2022-10-31T23:20:25.122Z,6.85
2022-10-31T23:23:29.748Z,6.80
2022-10-31T23:26:53.317Z,6.76
2022-10-31T23:30:01.473Z,6.74
2022-10-31T23:33:07.705Z,6.72
2022-10-31T23:36:14.296Z,6.69
2022-10-31T23:39:24.148Z,6.64
2022-10-31T23:42:31.685Z,6.62
2022-10-31T23:45:37.854Z,6.62
2022-10-31T23:48:48.143Z,6.59
2022-10-31T23:51:56.682Z,6.56
2022-10-31T23:55:02.915Z,6.56
2022-10-31T23:58:08.990Z,6.53
